createdAt,value
2022-08-17T00:00:43.193Z,5.00
2022-08-17T00:03:13.623Z,9.00
2022-08-17T00:05:46.816Z,8.60
2022-08-17T00:08:16.456Z,6.10
2022-08-17T00:10:45.610Z,7.53
2022-08-17T00:13:17.528Z,4.23
2022-08-17T00:15:47.361Z,5.30
2022-08-17T00:19:06.022Z,4.67
2022-08-17T00:21:10.363Z,6.83
2022-08-17T00:23:47.725Z,5.73
2022-08-17T00:26:43.686Z,5.40
2022-08-17T00:29:07.913Z,6.13
2022-08-17T00:31:36.772Z,6.70
2022-08-17T00:34:08.795Z,9.43
2022-08-17T00:36:37.291Z,5.33
2022-08-17T00:39:05.929Z,4.83
2022-08-17T00:41:35.803Z,5.43
2022-08-17T00:44:05.803Z,5.07
2022-08-17T00:46:36.337Z,5.30
2022-08-17T00:49:06.871Z,6.53
2022-08-17T00:51:39.386Z,4.77
2022-08-17T00:54:12.080Z,5.73
2022-08-17T00:56:45.676Z,6.03
2022-08-17T00:59:18.265Z,6.30
2022-08-17T01:01:47.082Z,4.80
2022-08-17T01:04:19.010Z,5.40
2022-08-17T01:06:49.422Z,4.50
2022-08-17T01:09:18.802Z,6.87
2022-08-17T01:11:52.300Z,5.53
2022-08-17T01:14:21.471Z,5.37
2022-08-17T01:16:51.630Z,5.43
2022-08-17T01:19:24.580Z,5.40
2022-08-17T01:22:00.354Z,5.40
2022-08-17T01:24:30.537Z,5.50
2022-08-17T01:27:02.315Z,5.00
2022-08-17T01:29:31.877Z,5.50
2022-08-17T01:32:03.874Z,6.47
2022-08-17T01:34:42.387Z,4.93
2022-08-17T01:37:12.758Z,6.60
2022-08-17T01:39:46.682Z,5.90
2022-08-17T01:42:21.749Z,5.67
2022-08-17T01:44:52.056Z,6.47
2022-08-17T01:47:20.236Z,7.03
2022-08-17T01:49:48.361Z,8.27
2022-08-17T01:52:17.794Z,5.47
2022-08-17T01:54:49.980Z,4.77
2022-08-17T01:57:18.265Z,7.60
2022-08-17T01:59:46.401Z,7.43
2022-08-17T02:02:30.343Z,5.87
2022-08-17T02:05:00.222Z,7.00
2022-08-17T02:07:28.830Z,5.83
2022-08-17T02:09:58.591Z,5.33
2022-08-17T02:12:37.716Z,9.47
2022-08-17T02:15:07.684Z,6.30
2022-08-17T02:17:35.850Z,5.47
2022-08-17T02:20:04.712Z,6.37
2022-08-17T02:22:33.280Z,7.43
2022-08-17T02:25:05.143Z,5.17
2022-08-17T02:27:33.353Z,6.47
2022-08-17T02:30:01.501Z,6.07
2022-08-17T02:32:29.741Z,5.10
2022-08-17T02:34:58.307Z,5.13
2022-08-17T02:37:27.009Z,5.23
2022-08-17T02:39:56.956Z,6.33
2022-08-17T02:42:31.489Z,5.40
2022-08-17T02:45:00.656Z,5.13
2022-08-17T02:47:29.766Z,6.33
2022-08-17T02:49:58.010Z,5.60
2022-08-17T02:52:42.429Z,6.10
2022-08-17T02:55:15.725Z,6.90
2022-08-17T02:57:45.963Z,6.33
2022-08-17T03:00:17.861Z,5.87
2022-08-17T03:02:47.352Z,5.97
2022-08-17T03:05:20.330Z,5.97
2022-08-17T03:07:52.146Z,6.90
2022-08-17T03:10:22.176Z,6.87
2022-08-17T03:12:53.130Z,5.57
2022-08-17T03:15:23.514Z,5.37
2022-08-17T03:17:52.354Z,7.80
2022-08-17T03:20:21.701Z,8.07
2022-08-17T03:22:53.815Z,6.20
2022-08-17T03:25:25.312Z,5.80
2022-08-17T03:27:55.232Z,6.30
2022-08-17T03:30:24.523Z,5.47
2022-08-17T03:32:54.624Z,5.53
2022-08-17T03:35:25.714Z,5.40
2022-08-17T03:38:00.730Z,7.20
2022-08-17T03:40:55.638Z,8.73
2022-08-17T03:43:22.529Z,8.90
2022-08-17T03:46:19.277Z,5.57
2022-08-17T03:49:13.847Z,5.87
2022-08-17T03:52:00.009Z,8.20
2022-08-17T03:54:45.508Z,8.87
2022-08-17T03:57:13.994Z,6.77
2022-08-17T03:59:44.934Z,8.60
2022-08-17T04:02:18.623Z,9.50
2022-08-17T04:04:46.948Z,6.23
2022-08-17T04:07:15.172Z,7.47
2022-08-17T04:09:43.841Z,8.50
2022-08-17T04:12:12.626Z,6.50
2022-08-17T04:14:53.637Z,5.57
2022-08-17T04:17:25.874Z,7.33
2022-08-17T04:19:54.967Z,5.30
2022-08-17T04:22:30.847Z,22.90
2022-08-17T04:25:04.356Z,14.87
2022-08-17T04:27:32.661Z,9.20
2022-08-17T04:30:00.872Z,7.27
2022-08-17T04:33:04.768Z,12.00
2022-08-17T04:35:21.699Z,10.80
2022-08-17T04:37:49.882Z,7.40
2022-08-17T04:40:37.335Z,10.07
2022-08-17T04:43:07.343Z,7.20
2022-08-17T04:45:39.210Z,8.33
2022-08-17T04:48:09.138Z,5.87
2022-08-17T04:50:40.889Z,6.83
2022-08-17T04:53:09.148Z,6.20
2022-08-17T04:55:37.776Z,7.33
2022-08-17T04:58:06.707Z,13.90
2022-08-17T05:00:36.006Z,15.17
2022-08-17T05:03:04.841Z,9.70
2022-08-17T05:05:37.619Z,7.50
2022-08-17T05:08:08.054Z,7.57
2022-08-17T05:10:39.273Z,5.83
2022-08-17T05:13:16.506Z,5.53
2022-08-17T05:15:47.943Z,4.37
2022-08-17T05:18:18.175Z,4.53
2022-08-17T05:20:47.808Z,4.60
2022-08-17T05:23:19.559Z,4.57
2022-08-17T05:25:50.338Z,4.77
2022-08-17T05:28:23.531Z,7.47
2022-08-17T05:30:56.265Z,6.20
2022-08-17T05:33:27.325Z,6.63
2022-08-17T05:35:59.419Z,4.70
2022-08-17T05:38:30.693Z,4.87
2022-08-17T05:41:00.358Z,6.33
2022-08-17T05:43:30.997Z,3.70
2022-08-17T05:46:06.168Z,4.60
2022-08-17T05:48:40.177Z,4.00
2022-08-17T05:51:38.123Z,4.70
2022-08-17T05:54:26.725Z,4.50
2022-08-17T05:57:08.843Z,4.43
2022-08-17T05:59:49.990Z,6.33
2022-08-17T06:02:25.476Z,8.33
2022-08-17T06:05:10.196Z,4.73
2022-08-17T06:07:49.613Z,5.20
2022-08-17T06:10:28.133Z,4.20
2022-08-17T06:13:06.441Z,4.70
2022-08-17T06:15:52.508Z,7.10
2022-08-17T06:18:27.150Z,8.00
2022-08-17T06:20:58.541Z,5.97
2022-08-17T06:23:33.605Z,7.07
2022-08-17T06:26:07.021Z,8.30
2022-08-17T06:28:42.414Z,6.87
2022-08-17T06:31:19.988Z,7.23
2022-08-17T06:33:48.299Z,9.87
2022-08-17T06:36:30.221Z,5.83
2022-08-17T06:39:12.159Z,5.87
2022-08-17T06:41:51.250Z,6.23
2022-08-17T06:44:43.630Z,7.03
2022-08-17T06:47:28.863Z,7.53
2022-08-17T06:50:08.839Z,5.43
2022-08-17T06:52:46.923Z,6.13
2022-08-17T06:55:22.346Z,7.00
2022-08-17T06:57:53.627Z,5.60
2022-08-17T07:00:24.293Z,6.73
2022-08-17T07:02:57.568Z,6.40
2022-08-17T07:05:31.564Z,6.33
2022-08-17T07:08:04.760Z,9.00
2022-08-17T07:10:40.157Z,6.83
2022-08-17T07:13:21.214Z,7.23
2022-08-17T07:15:56.499Z,8.13
2022-08-17T07:18:33.211Z,7.57
2022-08-17T07:21:09.716Z,7.37
2022-08-17T07:24:03.593Z,6.90
2022-08-17T07:26:33.592Z,8.20
2022-08-17T07:29:02.944Z,6.03
2022-08-17T07:31:33.522Z,9.27
2022-08-17T07:34:10.999Z,6.40
2022-08-17T07:36:39.226Z,7.93
2022-08-17T07:39:07.568Z,7.50
2022-08-17T07:41:53.378Z,7.57
2022-08-17T07:44:26.396Z,8.60
2022-08-17T07:47:13.406Z,12.63
2022-08-17T07:49:46.046Z,46.07
2022-08-17T07:52:50.797Z,21.80
2022-08-17T07:55:29.423Z,12.00
2022-08-17T07:58:00.645Z,12.87
2022-08-17T08:00:32.715Z,9.87
2022-08-17T08:03:13.250Z,10.57
2022-08-17T08:05:51.088Z,8.90
2022-08-17T08:08:29.574Z,9.80
2022-08-17T08:11:04.346Z,9.27
2022-08-17T08:13:35.432Z,9.97
2022-08-17T08:16:24.814Z,9.23
2022-08-17T08:18:57.618Z,10.23
2022-08-17T08:21:46.447Z,10.63
2022-08-17T08:24:30.785Z,11.87
2022-08-17T08:27:07.295Z,11.87
2022-08-17T08:29:50.159Z,10.97
2022-08-17T08:32:28.535Z,10.80
2022-08-17T08:35:09.811Z,32.20
2022-08-17T08:37:46.986Z,27.77
2022-08-17T08:40:33.055Z,16.93
2022-08-17T08:43:09.389Z,12.37
2022-08-17T08:45:47.934Z,13.53
2022-08-17T08:48:53.282Z,11.83
2022-08-17T08:51:22.284Z,12.83
2022-08-17T08:54:01.198Z,14.43
2022-08-17T08:57:19.224Z,10.87
2022-08-17T08:59:44.581Z,13.17
2022-08-17T09:02:34.846Z,16.63
2022-08-17T09:05:14.978Z,12.10
2022-08-17T09:07:54.707Z,11.73
2022-08-17T09:10:32.439Z,38.60
2022-08-17T09:13:10.151Z,64.93
2022-08-17T09:15:43.537Z,21.57
2022-08-17T09:19:00.512Z,15.50
2022-08-17T09:21:18.089Z,16.27
2022-08-17T09:23:59.655Z,14.83
2022-08-17T09:26:32.496Z,14.00
2022-08-17T09:29:08.681Z,15.00
2022-08-17T09:31:46.500Z,18.60
2022-08-17T09:34:28.166Z,13.87
2022-08-17T09:37:16.882Z,14.70
2022-08-17T09:39:54.472Z,14.13
2022-08-17T09:42:31.136Z,12.47
2022-08-17T09:45:23.769Z,14.50
2022-08-17T09:47:57.807Z,14.53
2022-08-17T09:51:05.530Z,18.10
2022-08-17T09:53:24.922Z,125.63
2022-08-17T09:56:14.744Z,53.70
2022-08-17T09:58:57.098Z,19.20
2022-08-17T10:01:36.988Z,15.90
2022-08-17T10:04:20.337Z,11.20
2022-08-17T10:06:58.675Z,14.73
2022-08-17T10:09:45.855Z,15.57
2022-08-17T10:12:30.261Z,14.83
2022-08-17T10:15:24.553Z,12.50
2022-08-17T10:18:21.356Z,12.30
2022-08-17T10:21:17.811Z,11.73
2022-08-17T10:24:09.615Z,11.43
2022-08-17T10:26:55.917Z,11.93
2022-08-17T10:29:30.189Z,13.10
2022-08-17T10:32:15.709Z,12.73
2022-08-17T10:35:00.880Z,12.47
2022-08-17T10:37:51.869Z,11.63
2022-08-17T10:40:33.653Z,14.17
2022-08-17T10:43:17.217Z,37.97
2022-08-17T10:46:30.357Z,41.23
2022-08-17T10:48:42.740Z,20.80
2022-08-17T10:51:34.019Z,14.67
2022-08-17T10:54:02.785Z,14.60
2022-08-17T10:56:59.141Z,13.40
2022-08-17T10:59:50.411Z,11.83
2022-08-17T11:02:28.407Z,12.63
2022-08-17T11:05:28.946Z,12.93
2022-08-17T11:08:27.187Z,11.90
2022-08-17T11:11:07.729Z,14.80
2022-08-17T11:13:46.263Z,12.13
2022-08-17T11:16:30.976Z,11.93
2022-08-17T11:19:41.003Z,13.73
2022-08-17T11:22:37.969Z,15.13
2022-08-17T11:25:17.341Z,15.57
2022-08-17T11:27:53.678Z,15.83
2022-08-17T11:30:47.052Z,15.30
2022-08-17T11:33:56.567Z,13.17
2022-08-17T11:36:40.473Z,18.60
2022-08-17T11:39:25.158Z,16.23
2022-08-17T11:41:58.978Z,15.70
2022-08-17T11:44:39.299Z,14.53
2022-08-17T11:47:35.260Z,15.43
2022-08-17T11:50:54.097Z,21.20
2022-08-17T11:54:28.947Z,20.90
2022-08-17T11:56:51.800Z,19.00
2022-08-17T11:59:59.061Z,14.40
2022-08-17T12:02:48.103Z,15.90
2022-08-17T12:05:34.127Z,13.37
2022-08-17T12:08:09.443Z,14.30
2022-08-17T12:10:52.494Z,17.80
2022-08-17T12:13:23.654Z,16.27
2022-08-17T12:15:59.596Z,15.23
2022-08-17T12:18:32.175Z,15.07
2022-08-17T12:21:15.596Z,15.40
2022-08-17T12:23:56.639Z,16.17
2022-08-17T12:26:30.274Z,18.40
2022-08-17T12:29:02.784Z,15.00
2022-08-17T12:31:37.945Z,16.30
2022-08-17T12:34:17.075Z,17.43
2022-08-17T12:36:46.349Z,14.67
2022-08-17T12:39:21.488Z,16.40
2022-08-17T12:41:52.856Z,16.73
2022-08-17T12:44:23.265Z,15.90
2022-08-17T12:47:00.623Z,15.67
2022-08-17T12:49:35.444Z,16.40
2022-08-17T12:52:13.451Z,17.97
2022-08-17T12:54:52.361Z,17.63
2022-08-17T12:57:23.695Z,16.23
2022-08-17T12:59:58.449Z,16.40
2022-08-17T13:02:39.958Z,20.03
2022-08-17T13:05:19.099Z,19.43
2022-08-17T13:07:47.878Z,19.47
2022-08-17T13:10:31.679Z,21.30
2022-08-17T13:13:04.765Z,21.30
2022-08-17T13:15:37.007Z,19.87
2022-08-17T13:18:08.723Z,22.50
2022-08-17T13:20:39.022Z,24.37
2022-08-17T13:23:12.380Z,23.33
2022-08-17T13:25:41.188Z,29.13
2022-08-17T13:28:35.548Z,26.80
2022-08-17T13:31:24.073Z,27.63
2022-08-17T13:33:52.235Z,21.67
2022-08-17T13:36:30.194Z,20.13
2022-08-17T13:39:09.470Z,21.70
2022-08-17T13:41:39.776Z,21.50
2022-08-17T13:44:33.452Z,20.97
2022-08-17T13:47:02.434Z,20.63
2022-08-17T13:49:42.000Z,21.37
2022-08-17T13:55:21.318Z,22.30
2022-08-17T13:57:57.782Z,19.97
2022-08-17T14:00:37.489Z,19.83
2022-08-17T14:03:06.790Z,18.53
2022-08-17T14:05:37.424Z,17.80
2022-08-17T14:08:07.647Z,17.97
2022-08-17T14:10:38.660Z,20.70
2022-08-17T14:13:08.603Z,24.17
2022-08-17T14:15:55.223Z,19.47
2022-08-17T14:18:35.523Z,20.07
2022-08-17T14:21:15.235Z,18.60
2022-08-17T14:23:54.445Z,17.93
2022-08-17T14:26:24.922Z,22.37
2022-08-17T14:28:56.600Z,16.13
2022-08-17T14:31:27.507Z,14.97
2022-08-17T14:33:56.126Z,19.90
2022-08-17T14:36:24.995Z,19.90
2022-08-17T14:38:53.413Z,17.17
2022-08-17T14:41:23.656Z,20.53
2022-08-17T14:43:54.282Z,18.87
2022-08-17T14:46:23.865Z,13.93
2022-08-17T14:48:57.206Z,15.80
2022-08-17T14:51:27.655Z,14.73
2022-08-17T14:53:57.201Z,15.73
2022-08-17T14:56:26.225Z,30.70
2022-08-17T14:58:56.186Z,26.70
2022-08-17T15:01:27.899Z,22.10
2022-08-17T15:03:56.263Z,21.80
2022-08-17T15:06:24.865Z,22.57
2022-08-17T15:08:53.636Z,20.60
2022-08-17T15:11:21.959Z,17.23
2022-08-17T15:13:52.561Z,13.63
2022-08-17T15:16:23.850Z,12.73
2022-08-17T15:18:52.721Z,12.00
2022-08-17T15:21:20.984Z,11.43
2022-08-17T15:23:49.191Z,11.03
2022-08-17T15:26:22.866Z,12.13
2022-08-17T15:28:57.344Z,12.13
2022-08-17T15:31:31.842Z,13.13
2022-08-17T15:34:01.095Z,10.30
2022-08-17T15:36:29.540Z,10.80
2022-08-17T15:38:58.795Z,9.87
2022-08-17T15:41:28.197Z,8.90
2022-08-17T15:43:57.149Z,7.23
2022-08-17T15:46:27.485Z,7.20
2022-08-17T15:48:59.682Z,7.17
2022-08-17T15:51:30.154Z,8.97
2022-08-17T15:54:04.434Z,9.00
2022-08-17T15:56:47.551Z,7.30
2022-08-17T15:59:15.879Z,7.17
2022-08-17T16:03:13.775Z,7.23
2022-08-17T16:04:34.133Z,6.80
2022-08-17T16:07:02.608Z,9.23
2022-08-17T16:09:30.969Z,6.47
2022-08-17T16:11:59.244Z,7.03
2022-08-17T16:14:30.275Z,7.03
2022-08-17T16:17:04.498Z,6.83
2022-08-17T16:19:34.234Z,7.23
2022-08-17T16:22:02.657Z,7.93
2022-08-17T16:24:31.473Z,7.97
2022-08-17T16:26:59.846Z,8.20
2022-08-17T16:29:28.862Z,7.87
2022-08-17T16:31:57.918Z,7.63
2022-08-17T16:34:27.736Z,6.60
2022-08-17T16:36:57.238Z,8.00
2022-08-17T16:39:27.655Z,8.57
2022-08-17T16:41:56.509Z,8.70
2022-08-17T16:44:25.905Z,9.97
2022-08-17T16:46:54.767Z,8.67
2022-08-17T16:49:31.929Z,19.23
2022-08-17T16:52:11.068Z,20.47
2022-08-17T16:54:43.399Z,16.50
2022-08-17T16:57:12.426Z,14.03
2022-08-17T16:59:44.910Z,12.20
2022-08-17T17:02:16.855Z,8.90
2022-08-17T17:04:53.031Z,9.17
2022-08-17T17:07:39.083Z,7.60
2022-08-17T17:10:11.368Z,8.53
2022-08-17T17:13:02.303Z,7.50
2022-08-17T17:15:41.489Z,7.97
2022-08-17T17:18:14.793Z,8.07
2022-08-17T17:20:50.873Z,7.50
2022-08-17T17:23:35.743Z,7.67
2022-08-17T17:26:17.196Z,7.50
2022-08-17T17:29:10.775Z,7.93
2022-08-17T17:31:46.294Z,6.83
2022-08-17T17:34:17.089Z,7.93
2022-08-17T17:36:51.513Z,7.13
2022-08-17T17:39:29.222Z,8.10
2022-08-17T17:42:00.665Z,5.93
2022-08-17T17:44:34.679Z,6.30
2022-08-17T17:47:04.766Z,6.50
2022-08-17T17:49:37.134Z,13.80
2022-08-17T17:52:15.590Z,38.63
2022-08-17T17:55:06.752Z,26.03
2022-08-17T17:57:46.986Z,14.60
2022-08-17T18:00:19.628Z,11.07
2022-08-17T18:03:02.414Z,8.80
2022-08-17T18:05:47.534Z,8.10
2022-08-17T18:08:38.171Z,6.50
2022-08-17T18:11:34.892Z,6.53
2022-08-17T18:14:19.394Z,6.90
2022-08-17T18:16:54.469Z,7.67
2022-08-17T18:19:26.706Z,7.80
2022-08-17T18:22:04.290Z,6.77
2022-08-17T18:24:39.008Z,7.70
2022-08-17T18:27:23.448Z,6.80
2022-08-17T18:29:54.606Z,6.40
2022-08-17T18:32:39.734Z,6.37
2022-08-17T18:35:30.908Z,7.93
2022-08-17T18:38:21.006Z,7.73
2022-08-17T18:41:00.783Z,6.70
2022-08-17T18:43:43.820Z,7.37
2022-08-17T18:46:28.625Z,7.83
2022-08-17T18:49:01.570Z,7.57
2022-08-17T18:51:41.834Z,7.63
2022-08-17T18:54:20.727Z,7.97
2022-08-17T18:56:56.227Z,8.90
2022-08-17T18:59:35.061Z,19.63
2022-08-17T19:02:44.776Z,23.40
2022-08-17T19:05:38.452Z,14.70
2022-08-17T19:08:21.917Z,10.80
2022-08-17T19:10:55.343Z,9.83
2022-08-17T19:13:30.740Z,9.47
2022-08-17T19:16:14.693Z,10.23
2022-08-17T19:18:50.023Z,12.53
2022-08-17T19:21:29.138Z,9.33
2022-08-17T19:24:05.340Z,11.20
2022-08-17T19:26:54.502Z,9.83
2022-08-17T19:29:34.328Z,10.03
2022-08-17T19:32:08.133Z,9.57
2022-08-17T19:34:40.340Z,10.53
2022-08-17T19:37:20.937Z,11.00
2022-08-17T19:40:00.709Z,10.33
2022-08-17T19:42:40.512Z,9.57
2022-08-17T19:45:18.160Z,10.13
2022-08-17T19:47:55.939Z,11.30
2022-08-17T19:50:33.331Z,11.40
2022-08-17T19:53:09.576Z,11.13
2022-08-17T19:55:51.074Z,10.27
2022-08-17T19:58:36.195Z,10.20
2022-08-17T20:01:07.578Z,12.33
2022-08-17T20:03:45.836Z,10.50
2022-08-17T20:06:18.362Z,13.13
2022-08-17T20:08:56.587Z,9.73
2022-08-17T20:11:33.001Z,11.57
2022-08-17T20:14:06.567Z,11.83
2022-08-17T20:16:35.352Z,11.70
2022-08-17T20:19:09.663Z,11.40
2022-08-17T20:21:43.751Z,12.23
2022-08-17T20:24:22.020Z,12.40
2022-08-17T20:26:58.472Z,12.97
2022-08-17T20:29:39.936Z,12.80
2022-08-17T20:32:18.862Z,13.23
2022-08-17T20:34:49.245Z,15.13
2022-08-17T20:37:31.165Z,14.90
2022-08-17T20:40:28.194Z,13.80
2022-08-17T20:42:58.348Z,14.30
2022-08-17T20:46:18.775Z,13.83
2022-08-17T20:48:50.711Z,15.87
2022-08-17T20:51:30.591Z,17.00
2022-08-17T20:54:35.223Z,15.80
2022-08-17T20:57:09.171Z,20.53
2022-08-17T21:00:02.913Z,15.17
2022-08-17T21:02:32.291Z,14.53
2022-08-17T21:05:20.171Z,14.10
2022-08-17T21:07:59.907Z,13.70
2022-08-17T21:10:37.263Z,15.30
2022-08-17T21:13:37.403Z,14.97
2022-08-17T21:16:23.866Z,16.10
2022-08-17T21:18:58.976Z,16.90
2022-08-17T21:21:35.408Z,20.23
2022-08-17T21:24:15.108Z,20.27
2022-08-17T21:26:55.469Z,20.10
2022-08-17T21:29:31.169Z,17.37
2022-08-17T21:32:24.284Z,18.73
2022-08-17T21:35:47.269Z,17.90
2022-08-17T21:38:17.260Z,25.77
2022-08-17T21:40:50.101Z,21.73
2022-08-17T21:43:26.492Z,21.87
2022-08-17T21:46:02.794Z,21.53
2022-08-17T21:48:33.268Z,21.83
2022-08-17T21:51:17.622Z,21.80
2022-08-17T21:53:49.172Z,20.50
2022-08-17T21:56:25.991Z,18.07
2022-08-17T21:59:01.259Z,18.73
2022-08-17T22:01:34.657Z,19.20
2022-08-17T22:04:06.616Z,20.40
2022-08-17T22:06:38.340Z,19.47
2022-08-17T22:09:18.034Z,21.67
2022-08-17T22:11:57.009Z,20.50
2022-08-17T22:14:51.442Z,24.97
2022-08-17T22:17:20.312Z,27.03
2022-08-17T22:19:51.488Z,32.33
2022-08-17T22:22:30.625Z,31.37
2022-08-17T22:25:03.557Z,31.03
2022-08-17T22:27:54.166Z,29.73
2022-08-17T22:30:32.696Z,28.90
2022-08-17T22:33:02.463Z,24.90
2022-08-17T22:35:40.324Z,26.83
2022-08-17T22:38:33.453Z,27.23
2022-08-17T22:41:41.122Z,26.00
2022-08-17T22:44:24.180Z,29.70
2022-08-17T22:46:59.960Z,35.17
2022-08-17T22:49:32.785Z,31.90
2022-08-17T22:52:08.661Z,35.00
2022-08-17T22:54:54.398Z,34.23
2022-08-17T22:57:51.502Z,30.30
2022-08-17T23:00:34.599Z,28.30
2022-08-17T23:03:14.415Z,30.60
2022-08-17T23:05:45.011Z,37.60
2022-08-17T23:08:13.869Z,34.37
2022-08-17T23:10:45.273Z,32.57
2022-08-17T23:13:13.901Z,32.50
2022-08-17T23:15:44.542Z,38.47
2022-08-17T23:18:13.002Z,36.27
2022-08-17T23:20:42.761Z,35.17
2022-08-17T23:23:12.225Z,32.70
2022-08-17T23:25:40.863Z,33.80
2022-08-17T23:28:09.111Z,34.90
2022-08-17T23:30:42.118Z,34.73
2022-08-17T23:33:19.488Z,32.67
2022-08-17T23:35:48.108Z,31.33
2022-08-17T23:38:16.311Z,34.50
2022-08-17T23:40:44.560Z,35.47
2022-08-17T23:43:23.512Z,33.27
2022-08-17T23:45:53.687Z,33.40
2022-08-17T23:48:33.017Z,35.60
2022-08-17T23:51:09.416Z,29.30
2022-08-17T23:53:40.252Z,28.67
2022-08-17T23:56:11.454Z,30.00
2022-08-17T23:58:43.690Z,29.60
